createdAt,value
2023-04-30T00:00:46.625Z,7.76
2023-04-30T00:03:32.437Z,7.69
2023-04-30T00:06:01.690Z,7.67
2023-04-30T00:08:31.810Z,7.67
2023-04-30T00:11:01.104Z,7.62
2023-04-30T00:13:29.822Z,7.56
2023-04-30T00:15:59.261Z,7.53
2023-04-30T00:18:28.591Z,7.46
2023-04-30T00:20:57.888Z,7.41
2023-04-30T00:23:26.730Z,7.41
2023-04-30T00:25:57.138Z,7.37
2023-04-30T00:28:26.002Z,7.24
2023-04-30T00:30:55.196Z,7.22
2023-04-30T00:33:23.994Z,7.25
2023-04-30T00:35:53.093Z,7.16
2023-04-30T00:38:21.910Z,7.14
2023-04-30T00:40:51.107Z,7.13
2023-04-30T00:43:21.212Z,7.05
2023-04-30T00:45:50.431Z,7.09
2023-04-30T00:48:19.459Z,6.96
2023-04-30T00:50:48.910Z,6.84
2023-04-30T00:53:17.967Z,6.78
2023-04-30T00:55:47.181Z,6.74
2023-04-30T00:58:16.141Z,6.79
2023-04-30T01:00:47.258Z,6.69
2023-04-30T01:03:16.612Z,6.66
2023-04-30T01:05:45.763Z,6.61
2023-04-30T01:08:14.824Z,6.51
2023-04-30T01:10:47.177Z,6.45
2023-04-30T01:13:19.260Z,6.40
2023-04-30T01:15:55.797Z,6.42
2023-04-30T01:18:26.781Z,6.39
2023-04-30T01:20:59.618Z,6.35
2023-04-30T01:23:34.377Z,6.30
2023-04-30T01:26:11.317Z,6.35
2023-04-30T01:28:45.733Z,6.21
2023-04-30T01:31:15.415Z,6.26
2023-04-30T01:33:44.331Z,6.22
2023-04-30T01:36:34.203Z,6.16
2023-04-30T01:39:12.588Z,6.11
2023-04-30T01:41:48.719Z,6.09
2023-04-30T01:44:26.183Z,6.02
2023-04-30T01:46:59.423Z,6.06
2023-04-30T01:49:31.587Z,6.03
2023-04-30T01:52:04.837Z,5.94
2023-04-30T01:54:44.562Z,5.94
2023-04-30T01:57:17.879Z,5.92
2023-04-30T01:59:48.518Z,5.90
2023-04-30T02:02:17.702Z,5.82
2023-04-30T02:04:46.616Z,5.83
2023-04-30T02:07:38.075Z,5.76
2023-04-30T02:10:07.498Z,5.73
2023-04-30T02:12:36.614Z,5.75
2023-04-30T02:15:08.115Z,5.63
2023-04-30T02:17:37.481Z,5.52
2023-04-30T02:20:07.197Z,5.54
2023-04-30T02:22:36.899Z,5.59
2023-04-30T02:25:05.968Z,5.56
2023-04-30T02:27:35.573Z,5.55
2023-04-30T02:33:47.763Z,5.47
2023-04-30T02:36:16.652Z,5.40
2023-04-30T02:38:45.676Z,5.37
2023-04-30T02:41:14.650Z,5.29
2023-04-30T02:43:44.285Z,5.35
2023-04-30T02:46:13.099Z,5.31
2023-04-30T02:48:42.172Z,5.23
2023-04-30T02:51:12.302Z,5.20
2023-04-30T02:53:41.799Z,5.12
2023-04-30T02:56:10.538Z,5.14
2023-04-30T02:58:39.725Z,5.19
2023-04-30T03:01:08.552Z,5.17
2023-04-30T03:03:37.908Z,5.12
2023-04-30T03:06:07.162Z,5.02
2023-04-30T03:08:37.855Z,4.98
2023-04-30T03:11:06.976Z,4.99
2023-04-30T03:13:36.346Z,4.96
2023-04-30T03:16:05.798Z,5.04
2023-04-30T03:18:34.926Z,5.00
2023-04-30T03:21:03.674Z,5.04
2023-04-30T03:23:32.847Z,4.94
2023-04-30T03:26:03.539Z,4.99
2023-04-30T03:28:32.772Z,4.93
2023-04-30T03:31:05.183Z,4.83
2023-04-30T03:33:34.530Z,4.82
2023-04-30T03:36:03.428Z,4.85
2023-04-30T03:38:32.567Z,4.92
2023-04-30T03:41:01.302Z,4.84
2023-04-30T03:43:31.878Z,4.87
2023-04-30T03:46:00.860Z,4.95
2023-04-30T03:48:30.306Z,4.91
2023-04-30T03:50:59.493Z,4.88
2023-04-30T03:53:28.730Z,5.01
2023-04-30T03:55:57.917Z,5.08
2023-04-30T03:58:26.963Z,5.15
2023-04-30T04:00:57.446Z,5.20
2023-04-30T04:03:26.677Z,5.26
2023-04-30T04:05:56.274Z,5.29
2023-04-30T04:08:26.049Z,5.38
2023-04-30T04:10:55.067Z,5.44
2023-04-30T04:13:24.080Z,5.48
2023-04-30T04:15:52.924Z,5.59
2023-04-30T04:18:24.681Z,5.66
2023-04-30T04:20:54.284Z,5.69
2023-04-30T04:23:23.836Z,5.77
2023-04-30T04:25:53.160Z,5.85
2023-04-30T04:28:23.263Z,5.94
2023-04-30T04:30:52.517Z,5.98
2023-04-30T04:33:21.607Z,6.03
2023-04-30T04:35:51.854Z,6.11
2023-04-30T04:38:22.962Z,6.18
2023-04-30T04:40:54.910Z,6.27
2023-04-30T04:43:25.068Z,6.32
2023-04-30T04:45:53.915Z,6.36
2023-04-30T04:48:22.967Z,6.45
2023-04-30T04:50:53.348Z,6.51
2023-04-30T04:53:22.699Z,6.58
2023-04-30T04:55:52.409Z,6.64
2023-04-30T04:58:21.565Z,6.70
2023-04-30T05:00:50.286Z,6.76
2023-04-30T05:03:21.120Z,6.84
2023-04-30T05:05:53.489Z,6.92
2023-04-30T05:08:22.884Z,6.97
2023-04-30T05:10:51.667Z,6.97
2023-04-30T05:13:20.711Z,7.06
2023-04-30T05:15:53.780Z,7.13
2023-04-30T05:18:23.347Z,7.22
2023-04-30T05:20:53.495Z,7.28
2023-04-30T05:23:22.918Z,7.37
2023-04-30T05:25:52.953Z,7.44
2023-04-30T05:28:22.383Z,7.51
2023-04-30T05:30:51.089Z,7.56
2023-04-30T05:33:20.226Z,7.60
2023-04-30T05:35:48.949Z,7.69
2023-04-30T05:38:19.603Z,7.81
2023-04-30T05:40:48.490Z,7.92
2023-04-30T05:43:17.479Z,7.88
2023-04-30T05:45:46.490Z,7.95
2023-04-30T05:48:15.791Z,8.00
2023-04-30T05:50:44.905Z,8.01
2023-04-30T05:53:14.528Z,8.03
2023-04-30T05:55:44.847Z,8.04
2023-04-30T05:58:14.292Z,8.07
2023-04-30T06:00:42.983Z,8.08
2023-04-30T06:03:12.161Z,8.16
2023-04-30T06:05:41.777Z,8.23
2023-04-30T06:08:11.071Z,8.34
2023-04-30T06:10:39.975Z,8.40
2023-04-30T06:13:10.671Z,8.39
2023-04-30T06:15:39.762Z,8.43
2023-04-30T06:18:08.798Z,8.51
2023-04-30T06:20:37.686Z,8.64
2023-04-30T06:23:06.818Z,8.73
2023-04-30T06:25:35.573Z,8.84
2023-04-30T06:28:05.016Z,8.90
2023-04-30T06:30:35.287Z,8.97
2023-04-30T06:33:04.927Z,9.00
2023-04-30T06:35:33.848Z,9.09
2023-04-30T06:38:03.234Z,9.19
2023-04-30T06:40:32.316Z,9.23
2023-04-30T06:43:01.486Z,9.30
2023-04-30T06:45:30.280Z,9.31
2023-04-30T06:48:01.141Z,9.34
2023-04-30T06:50:30.185Z,9.43
2023-04-30T06:52:59.296Z,9.49
2023-04-30T06:55:28.547Z,9.54
2023-04-30T06:57:58.059Z,9.58
2023-04-30T07:00:27.603Z,9.70
2023-04-30T07:02:57.349Z,9.75
2023-04-30T07:05:28.218Z,9.81
2023-04-30T07:07:57.926Z,9.83
2023-04-30T07:10:26.903Z,9.88
2023-04-30T07:12:56.680Z,9.98
2023-04-30T07:15:25.443Z,10.07
2023-04-30T07:17:55.214Z,10.04
2023-04-30T07:20:24.265Z,10.04
2023-04-30T07:22:55.662Z,10.04
2023-04-30T07:25:24.531Z,10.14
2023-04-30T07:27:53.985Z,10.16
2023-04-30T07:30:25.166Z,10.31
2023-04-30T07:32:56.433Z,10.32
2023-04-30T07:35:25.361Z,10.35
2023-04-30T07:37:57.330Z,10.40
2023-04-30T07:40:35.445Z,10.49
2023-04-30T07:43:05.709Z,10.58
2023-04-30T07:45:35.266Z,10.57
2023-04-30T07:48:05.959Z,10.57
2023-04-30T07:50:35.767Z,10.64
2023-04-30T07:53:09.343Z,10.70
2023-04-30T07:55:38.545Z,10.71
2023-04-30T07:58:07.705Z,10.68
2023-04-30T08:00:37.962Z,10.76
2023-04-30T08:03:07.371Z,10.86
2023-04-30T08:05:36.328Z,10.94
2023-04-30T08:08:07.007Z,10.97
2023-04-30T08:10:37.324Z,11.09
2023-04-30T08:13:08.580Z,11.12
2023-04-30T08:15:40.100Z,11.16
2023-04-30T08:18:12.803Z,11.24
2023-04-30T08:20:41.825Z,11.31
2023-04-30T08:23:12.348Z,11.30
2023-04-30T08:25:41.596Z,11.33
2023-04-30T08:28:10.635Z,11.41
2023-04-30T08:30:40.059Z,11.50
2023-04-30T08:33:09.341Z,11.57
2023-04-30T08:35:38.904Z,11.61
2023-04-30T08:38:07.915Z,11.66
2023-04-30T08:40:50.890Z,11.76
2023-04-30T08:43:21.787Z,11.77
2023-04-30T08:45:52.329Z,11.77
2023-04-30T08:48:22.477Z,11.87
2023-04-30T08:50:51.464Z,11.98
2023-04-30T08:53:21.615Z,11.98
2023-04-30T08:55:53.574Z,11.99
2023-04-30T08:58:23.026Z,11.95
2023-04-30T09:00:51.908Z,11.93
2023-04-30T09:03:22.301Z,11.94
2023-04-30T09:05:52.580Z,11.98
2023-04-30T09:08:41.734Z,12.06
2023-04-30T09:11:25.284Z,12.04
2023-04-30T09:13:56.017Z,12.05
2023-04-30T09:16:27.772Z,12.09
2023-04-30T09:18:57.287Z,12.09
2023-04-30T09:21:32.914Z,12.20
2023-04-30T09:24:03.012Z,12.27
2023-04-30T09:26:35.164Z,12.30
2023-04-30T09:29:08.079Z,12.34
2023-04-30T09:31:38.458Z,12.35
2023-04-30T09:34:07.913Z,12.40
2023-04-30T09:36:36.915Z,12.34
2023-04-30T09:39:09.867Z,12.36
2023-04-30T09:41:41.210Z,12.44
2023-04-30T09:44:27.311Z,12.49
2023-04-30T09:46:57.298Z,12.53
2023-04-30T09:49:27.907Z,12.41
2023-04-30T09:51:57.568Z,12.43
2023-04-30T09:54:27.787Z,12.49
2023-04-30T09:56:59.142Z,12.51
2023-04-30T09:59:31.537Z,12.53
2023-04-30T10:02:02.313Z,12.57
2023-04-30T10:04:33.343Z,12.65
2023-04-30T10:07:03.309Z,12.73
2023-04-30T10:09:36.678Z,12.79
2023-04-30T10:12:09.326Z,12.81
2023-04-30T10:14:38.973Z,12.87
2023-04-30T10:17:10.044Z,12.86
2023-04-30T10:19:41.692Z,12.89
2023-04-30T10:22:10.669Z,13.00
2023-04-30T10:24:39.886Z,13.05
2023-04-30T10:27:10.715Z,13.10
2023-04-30T10:29:39.987Z,12.98
2023-04-30T10:32:09.389Z,12.95
2023-04-30T10:34:45.467Z,13.02
2023-04-30T10:37:23.285Z,13.10
2023-04-30T10:39:52.992Z,13.11
2023-04-30T10:42:23.489Z,12.99
2023-04-30T10:44:53.006Z,13.05
2023-04-30T10:47:21.937Z,13.10
2023-04-30T10:49:50.968Z,13.04
2023-04-30T10:52:28.354Z,13.12
2023-04-30T10:54:57.807Z,13.10
2023-04-30T10:57:30.867Z,13.12
2023-04-30T11:00:15.168Z,13.13
2023-04-30T11:02:45.196Z,13.07
2023-04-30T11:05:15.666Z,13.09
2023-04-30T11:07:49.699Z,13.06
2023-04-30T11:10:22.063Z,13.13
2023-04-30T11:12:53.093Z,13.06
2023-04-30T11:15:23.001Z,13.06
2023-04-30T11:17:52.345Z,13.05
2023-04-30T11:20:22.436Z,13.11
2023-04-30T11:23:06.156Z,13.20
2023-04-30T11:25:41.096Z,13.27
2023-04-30T11:28:15.134Z,13.34
2023-04-30T11:30:51.296Z,13.44
2023-04-30T11:33:20.575Z,13.39
2023-04-30T11:35:52.142Z,13.36
2023-04-30T11:38:22.197Z,13.40
2023-04-30T11:40:52.206Z,13.45
2023-04-30T11:43:26.857Z,13.49
2023-04-30T11:46:01.261Z,13.52
2023-04-30T11:48:33.663Z,13.54
2023-04-30T11:51:04.701Z,13.51
2023-04-30T11:53:33.647Z,13.46
2023-04-30T11:56:06.442Z,13.39
2023-04-30T11:58:38.101Z,13.43
2023-04-30T12:01:08.418Z,13.49
2023-04-30T12:03:44.964Z,13.51
2023-04-30T12:06:22.724Z,13.46
2023-04-30T12:08:53.507Z,13.45
2023-04-30T12:11:25.444Z,13.38
2023-04-30T12:13:57.206Z,13.42
2023-04-30T12:16:26.790Z,13.43
2023-04-30T12:18:55.928Z,13.43
2023-04-30T12:21:25.111Z,13.46
2023-04-30T12:23:53.888Z,13.53
2023-04-30T12:26:23.300Z,13.53
2023-04-30T12:28:52.301Z,13.63
2023-04-30T12:31:22.734Z,13.69
2023-04-30T12:33:55.320Z,13.76
2023-04-30T12:36:31.652Z,13.78
2023-04-30T12:39:10.784Z,13.83
2023-04-30T12:41:42.444Z,13.87
2023-04-30T12:44:21.634Z,13.83
2023-04-30T12:46:53.512Z,13.75
2023-04-30T12:49:26.418Z,13.72
2023-04-30T12:52:02.277Z,13.82
2023-04-30T12:54:32.854Z,13.84
2023-04-30T12:57:03.271Z,13.86
2023-04-30T12:59:32.983Z,13.80
2023-04-30T13:02:13.252Z,13.81
2023-04-30T13:04:43.761Z,13.81
2023-04-30T13:07:13.195Z,13.88
2023-04-30T13:09:41.963Z,13.92
2023-04-30T13:12:12.325Z,13.91
2023-04-30T13:14:41.195Z,13.85
2023-04-30T13:17:13.864Z,13.86
2023-04-30T13:19:43.022Z,13.95
2023-04-30T13:22:12.786Z,14.00
2023-04-30T13:24:41.960Z,14.01
2023-04-30T13:27:11.925Z,14.00
2023-04-30T13:29:42.063Z,14.02
2023-04-30T13:32:13.799Z,14.06
2023-04-30T13:34:42.923Z,14.15
2023-04-30T13:37:12.152Z,14.30
2023-04-30T13:39:41.464Z,14.42
2023-04-30T13:42:10.721Z,14.53
2023-04-30T13:44:39.900Z,14.80
2023-04-30T13:47:09.487Z,15.02
2023-04-30T13:49:39.944Z,15.29
2023-04-30T13:52:09.299Z,15.69
2023-04-30T13:54:43.559Z,16.27
2023-04-30T13:57:12.871Z,16.68
2023-04-30T13:59:41.929Z,16.99
2023-04-30T14:02:11.176Z,17.52
2023-04-30T14:04:43.103Z,18.00
2023-04-30T14:07:21.002Z,18.17
2023-04-30T14:09:50.192Z,18.51
2023-04-30T14:12:21.515Z,18.69
2023-04-30T14:14:50.396Z,19.06
2023-04-30T14:17:19.483Z,19.18
2023-04-30T14:19:49.813Z,19.35
2023-04-30T14:22:19.288Z,19.61
2023-04-30T14:24:48.010Z,19.97
2023-04-30T14:27:17.313Z,19.88
2023-04-30T14:29:46.515Z,19.76
2023-04-30T14:32:16.139Z,20.08
2023-04-30T14:34:44.963Z,20.12
2023-04-30T14:37:17.196Z,20.29
2023-04-30T14:39:46.209Z,20.29
2023-04-30T14:42:15.473Z,20.49
2023-04-30T14:44:44.587Z,20.43
2023-04-30T14:47:14.649Z,20.53
2023-04-30T14:49:43.965Z,20.72
2023-04-30T14:52:12.987Z,20.92
2023-04-30T14:54:43.429Z,21.00
2023-04-30T14:57:12.686Z,21.12
2023-04-30T14:59:41.931Z,20.99
2023-04-30T15:02:11.597Z,20.90
2023-04-30T15:04:40.899Z,21.13
2023-04-30T15:07:10.054Z,20.93
2023-04-30T15:09:39.170Z,20.76
2023-04-30T15:12:09.992Z,20.87
2023-04-30T15:14:39.123Z,20.57
2023-04-30T15:17:08.165Z,20.45
2023-04-30T15:19:38.234Z,20.47
2023-04-30T15:22:07.461Z,20.19
2023-04-30T15:24:38.195Z,20.41
2023-04-30T15:27:07.313Z,20.43
2023-04-30T15:29:37.584Z,20.62
2023-04-30T15:32:07.036Z,20.66
2023-04-30T15:34:35.759Z,20.59
2023-04-30T15:37:04.998Z,20.93
2023-04-30T15:39:35.269Z,21.26
2023-04-30T15:42:04.620Z,21.63
2023-04-30T15:44:33.405Z,21.77
2023-04-30T15:47:04.190Z,21.86
2023-04-30T15:49:33.288Z,21.94
2023-04-30T15:52:02.303Z,22.34
2023-04-30T15:54:31.688Z,22.62
2023-04-30T15:57:00.824Z,22.48
2023-04-30T15:59:29.947Z,22.26
2023-04-30T16:01:59.667Z,22.51
2023-04-30T16:04:30.273Z,22.83
2023-04-30T16:06:59.840Z,22.67
2023-04-30T16:09:28.743Z,22.57
2023-04-30T16:12:00.772Z,22.57
2023-04-30T16:14:31.013Z,22.30
2023-04-30T16:17:00.135Z,22.13
2023-04-30T16:19:30.651Z,21.69
2023-04-30T16:22:00.177Z,21.60
2023-04-30T16:24:29.029Z,21.30
2023-04-30T16:26:58.312Z,20.66
2023-04-30T16:29:27.018Z,20.09
2023-04-30T16:31:56.416Z,19.63
2023-04-30T16:34:25.244Z,19.24
2023-04-30T16:36:55.681Z,18.76
2023-04-30T16:39:24.791Z,18.48
2023-04-30T16:41:53.833Z,18.12
2023-04-30T16:44:22.844Z,17.53
2023-04-30T16:46:51.986Z,17.30
2023-04-30T16:49:21.299Z,17.10
2023-04-30T16:51:50.970Z,16.54
2023-04-30T16:54:21.245Z,16.14
2023-04-30T16:56:50.530Z,15.99
2023-04-30T16:59:19.339Z,15.54
2023-04-30T17:01:48.570Z,15.23
2023-04-30T17:04:17.714Z,14.96
2023-04-30T17:06:47.323Z,14.84
2023-04-30T17:09:16.473Z,14.38
2023-04-30T17:11:48.409Z,14.38
2023-04-30T17:14:17.416Z,14.20
2023-04-30T17:16:46.467Z,14.02
2023-04-30T17:19:15.233Z,13.80
2023-04-30T17:21:44.516Z,13.77
2023-04-30T17:24:13.275Z,13.48
2023-04-30T17:26:42.607Z,13.21
2023-04-30T17:29:13.621Z,13.13
2023-04-30T17:31:43.281Z,12.85
2023-04-30T17:34:12.494Z,12.76
2023-04-30T17:36:42.008Z,12.56
2023-04-30T17:39:10.982Z,12.25
2023-04-30T17:41:40.052Z,12.12
2023-04-30T17:44:09.110Z,12.00
2023-04-30T17:46:39.678Z,12.04
2023-04-30T17:49:08.960Z,11.90
2023-04-30T17:51:38.006Z,11.70
2023-04-30T17:54:06.924Z,11.39
2023-04-30T17:56:36.325Z,11.33
2023-04-30T17:59:05.262Z,11.20
2023-04-30T18:01:34.635Z,11.06
2023-04-30T18:04:08.369Z,10.89
2023-04-30T18:06:37.869Z,10.84
2023-04-30T18:09:06.601Z,10.68
2023-04-30T18:11:35.864Z,10.56
2023-04-30T18:14:05.540Z,10.50
2023-04-30T18:16:35.131Z,10.30
2023-04-30T18:19:05.730Z,10.20
2023-04-30T18:21:35.116Z,10.13
2023-04-30T18:24:04.101Z,10.02
2023-04-30T18:26:33.364Z,10.05
2023-04-30T18:29:02.108Z,10.01
2023-04-30T18:31:32.085Z,9.91
2023-04-30T18:34:01.311Z,9.82
2023-04-30T18:36:32.224Z,9.74
2023-04-30T18:39:01.114Z,9.70
2023-04-30T18:41:30.512Z,9.67
2023-04-30T18:43:59.429Z,9.56
2023-04-30T18:46:28.499Z,9.67
2023-04-30T18:48:58.153Z,9.48
2023-04-30T18:51:27.160Z,9.60
2023-04-30T18:53:57.847Z,9.50
2023-04-30T18:56:27.206Z,9.40
2023-04-30T18:58:56.001Z,9.28
2023-04-30T19:01:27.397Z,9.27
2023-04-30T19:03:56.603Z,9.28
2023-04-30T19:06:25.758Z,9.08
2023-04-30T19:08:55.093Z,9.01
2023-04-30T19:11:25.826Z,9.09
2023-04-30T19:13:54.765Z,8.99
2023-04-30T19:16:25.111Z,9.03
2023-04-30T19:18:54.051Z,9.01
2023-04-30T19:21:23.535Z,8.96
2023-04-30T19:23:53.716Z,8.88
2023-04-30T19:26:23.088Z,8.79
2023-04-30T19:28:53.580Z,8.70
2023-04-30T19:31:23.532Z,8.57
2023-04-30T19:33:53.022Z,8.44
2023-04-30T19:36:22.201Z,8.36
2023-04-30T19:38:52.173Z,8.26
2023-04-30T19:41:21.719Z,8.18
2023-04-30T19:43:52.402Z,8.08
2023-04-30T19:46:23.307Z,7.92
2023-04-30T19:48:52.399Z,7.85
2023-04-30T19:51:21.457Z,7.76
2023-04-30T19:53:50.467Z,7.65
2023-04-30T19:56:20.820Z,7.56
2023-04-30T19:58:49.809Z,7.46
2023-04-30T20:01:19.160Z,7.36
2023-04-30T20:03:49.522Z,7.29
2023-04-30T20:06:18.946Z,7.25
2023-04-30T20:08:47.677Z,7.13
2023-04-30T20:11:17.050Z,7.08
2023-04-30T20:13:46.765Z,6.98
2023-04-30T20:16:19.119Z,6.90
2023-04-30T20:18:49.694Z,6.82
2023-04-30T20:21:20.625Z,6.75
2023-04-30T20:23:49.904Z,6.66
2023-04-30T20:26:18.950Z,6.58
2023-04-30T20:28:48.256Z,6.49
2023-04-30T20:31:17.429Z,6.43
2023-04-30T20:33:46.777Z,6.36
2023-04-30T20:36:20.475Z,6.29
2023-04-30T20:38:53.374Z,6.22
2023-04-30T20:41:22.643Z,6.13
2023-04-30T20:43:52.102Z,6.06
2023-04-30T20:46:22.946Z,5.90
2023-04-30T20:48:54.616Z,5.80
2023-04-30T20:51:25.565Z,5.63
2023-04-30T20:53:54.531Z,5.54
2023-04-30T20:56:23.597Z,5.59
2023-04-30T20:58:54.992Z,5.48
2023-04-30T21:01:24.199Z,5.45
2023-04-30T21:03:53.004Z,5.46
2023-04-30T21:06:22.285Z,5.44
2023-04-30T21:08:52.885Z,5.47
2023-04-30T21:11:22.075Z,5.40
2023-04-30T21:13:51.471Z,5.35
2023-04-30T21:16:20.776Z,5.39
2023-04-30T21:18:49.843Z,5.42
2023-04-30T21:21:19.001Z,5.43
2023-04-30T21:23:48.388Z,5.40
2023-04-30T21:26:19.090Z,5.38
2023-04-30T21:28:49.495Z,5.33
2023-04-30T21:31:19.156Z,5.28
2023-04-30T21:33:48.203Z,5.24
2023-04-30T21:36:18.258Z,5.19
2023-04-30T21:38:47.324Z,5.14
2023-04-30T21:41:16.622Z,5.09
2023-04-30T21:43:47.189Z,5.04
2023-04-30T21:46:16.635Z,5.01
2023-04-30T21:48:46.101Z,4.96
2023-04-30T21:51:17.302Z,4.87
2023-04-30T21:53:47.544Z,4.86
2023-04-30T21:56:17.367Z,4.83
2023-04-30T21:58:50.691Z,4.78
2023-04-30T22:01:20.695Z,4.75
2023-04-30T22:03:49.713Z,4.71
2023-04-30T22:06:18.920Z,4.67
2023-04-30T22:08:47.874Z,4.62
2023-04-30T22:11:17.679Z,4.56
2023-04-30T22:13:47.981Z,4.51
2023-04-30T22:16:17.235Z,4.46
2023-04-30T22:18:46.338Z,4.36
2023-04-30T22:21:15.682Z,4.43
2023-04-30T22:23:44.731Z,4.36
2023-04-30T22:26:13.763Z,4.41
2023-04-30T22:28:42.559Z,4.39
2023-04-30T22:31:13.031Z,4.40
2023-04-30T22:33:42.037Z,4.40
2023-04-30T22:36:11.303Z,4.41
2023-04-30T22:38:40.243Z,4.40
2023-04-30T22:41:09.305Z,4.44
2023-04-30T22:43:38.267Z,4.43
2023-04-30T22:46:07.403Z,4.43
2023-04-30T22:48:38.223Z,4.41
2023-04-30T22:51:07.581Z,4.32
2023-04-30T22:53:36.468Z,4.30
2023-04-30T22:56:05.898Z,4.21
2023-04-30T22:58:34.658Z,4.20
2023-04-30T23:01:03.894Z,4.16
2023-04-30T23:03:32.680Z,4.30
2023-04-30T23:06:03.365Z,4.35
2023-04-30T23:08:32.328Z,4.34
2023-04-30T23:11:02.702Z,4.34
2023-04-30T23:13:32.061Z,4.26
2023-04-30T23:16:01.973Z,4.25
2023-04-30T23:18:31.579Z,4.17
2023-04-30T23:21:00.987Z,4.20
2023-04-30T23:23:32.201Z,4.09
2023-04-30T23:26:01.700Z,4.11
2023-04-30T23:28:30.560Z,4.18
2023-04-30T23:30:59.628Z,4.07
2023-04-30T23:33:28.809Z,3.98
2023-04-30T23:35:57.853Z,4.05
2023-04-30T23:38:27.642Z,4.09
2023-04-30T23:40:58.151Z,4.07
2023-04-30T23:43:29.688Z,3.92
2023-04-30T23:45:59.305Z,3.85
2023-04-30T23:48:28.344Z,3.94
2023-04-30T23:51:00.753Z,3.85
2023-04-30T23:53:29.749Z,3.79
2023-04-30T23:56:00.253Z,3.74
2023-04-30T23:58:30.920Z,3.75
